METAR Data
IDs: Format: Raw Decoded Include TAF

Data at: 2229 UTC 10 May 2021

K4V0 102215Z AUTO 10007G14KT 070V130 4SM RA OVC033 06/03 A3002 RMK AO2 LTG DSNT N T00570032
K4V0 102155Z AUTO 14013KT 1SM UP SCT023 BKN031 OVC043 05/03 A3000 RMK AO2 T00500025
K4V0 102135Z AUTO 17016G21KT 10SM VCTS BKN055 OVC070 11/00 A2999 RMK AO2 LTG DSNT SW T01071005
K4V0 102115Z AUTO 31003KT 10SM SCT055 BKN070 OVC090 12/M02 A2995 RMK AO2 T01241016
K4V0 102055Z AUTO 36008KT 340V040 10SM SCT055 BKN090 13/M01 A2995 RMK AO2 LTG DSNT E AND SE T01271012
K4V0 102035Z AUTO 32005KT 10SM CLR 13/M01 A2995 RMK AO2 LTG DSNT E THRU S T01341008
K4V0 102015Z AUTO 33008G16KT 10SM SCT046 SCT060 13/00 A2996 RMK AO2 LTG DSNT E T01331002
K4V0 101955Z AUTO 34011G17KT 10SM SCT048 SCT060 BKN095 13/01 A2996 RMK AO2 T01330005
K4V0 101935Z AUTO 35014G19KT 10SM SCT080 BKN095 BKN120 14/00 A2996 RMK AO2 LTG DSNT E T01350000
K4V0 101915Z AUTO 34010G15KT 10SM SCT045 SCT065 BKN080 14/00 A2996 RMK AO2 T01351001
K4V0 101855Z AUTO 33013G17KT 10SM BKN065 OVC080 13/00 A2996 RMK AO2 T01261005
K4V0 101835Z AUTO 36013G18KT 10SM VCTS SCT065 BKN080 BKN120 12/M01 A2996 RMK AO2 LTG DSNT N T01211007
K4V0 101815Z AUTO 00000KT 10SM SCT028 SCT044 BKN065 12/M03 A2997 RMK AO2 T01211027
K4V0 101755Z AUTO 22003KT 10SM BKN075 13/M03 A2997 RMK AO2 LTG DSNT NE AND E 6//// T01251028
K4V0 101735Z AUTO 34004KT 10SM BKN075 13/M03 A2997 RMK AO2 T01261027
K4V0 101715Z AUTO 34005KT 13/M02 A2997 RMK AO2 T01291017
K4V0 101655Z AUTO 00000KT 10SM BKN080 11/M02 A2997 RMK AO2 T01071020
K4V0 101635Z AUTO 08003KT 10SM BKN080 11/M02 A2999 RMK AO2 T01071020
K4V0 101615Z AUTO 02006KT 10SM SCT080 12/M01 A2999 RMK AO2 T01161012
K4V0 101555Z AUTO 03006KT 10SM SCT080 11/M01 A2999 RMK AO2 T01091009
K4V0 101535Z AUTO 01007KT 10SM BKN080 11/M01 A2999 RMK AO2 T01101006
K4V0 101515Z AUTO 01006KT 10SM SCT070 10/00 A2999 RMK AO2 T01021005
K4V0 101455Z AUTO 02008KT 10SM SCT070 09/00 A3000 RMK AO2 T00851004
K4V0 101435Z AUTO 02010KT 10SM SCT070 09/00 A2999 RMK AO2 T00861002
K4V0 101415Z AUTO 02012KT 10SM SCT070 07/00 A3000 RMK AO2 T00721003
K4V0 101355Z AUTO 03009KT 10SM SCT070 06/M01 A3000 RMK AO2 T00641006
K4V0 101335Z AUTO 03009KT 10SM BKN070 07/00 A3000 RMK AO2 T00651005
K4V0 101315Z AUTO 04007KT 10SM BKN070 06/00 A3000 RMK AO2 T00621005
K4V0 101255Z AUTO 06006KT 10SM SCT070 06/00 A2999 RMK AO2 T00571005
K4V0 101235Z AUTO 04006KT 10SM CLR 06/00 A2999 RMK AO2 T00551003
K4V0 101215Z AUTO 04008KT 10SM CLR 06/00 A2999 RMK AO2 T00561005
K4V0 101155Z AUTO 04008KT 10SM CLR 06/00 A2999 RMK AO2 T00601005 10108 20058
K4V0 101135Z AUTO 04011KT 10SM SCT070 06/00 A2999 RMK AO2 T00601005
K4V0 101115Z AUTO 03011KT 10SM BKN070 06/00 A2999 RMK AO2 T00621005
K4V0 101055Z AUTO 03015G18KT 10SM OVC070 07/00 A2999 RMK AO2 T00661005
K4V0 101035Z AUTO 03011KT 10SM BKN070 OVC080 07/M01 A2999 RMK AO2 T00671006
K4V0 101015Z AUTO 03016KT 10SM SCT055 OVC070 07/M01 A2999 RMK AO2 T00681006
K4V0 100955Z AUTO 04013G21KT 10SM SCT055 OVC070 07/M01 A2999 RMK AO2 T00701006
K4V0 100935Z AUTO 03017G22KT 10SM BKN080 OVC085 07/M01 A2999 RMK AO2 T00721006
K4V0 100915Z AUTO 04015G20KT 10SM OVC080 07/M01 A2998 RMK AO2 T00731007
K4V0 100855Z AUTO 04013G18KT 10SM OVC085 08/M01 A2998 RMK AO2 T00751010
K4V0 100835Z AUTO 04014G17KT 10SM OVC095 08/M01 A2997 RMK AO2 T00781015
K4V0 100815Z AUTO 04016G21KT 10SM OVC095 08/M02 A2999 RMK AO2 T00811018
K4V0 100755Z AUTO 01013KT 10SM OVC095 09/M03 A2999 RMK AO2 T00901032
K4V0 100735Z AUTO 01006KT 10SM BKN095 09/M03 A2999 RMK AO2 T00901035
K4V0 100715Z AUTO 01009KT 10SM SCT095 09/M04 A2999 RMK AO2 T00901037
K4V0 100655Z AUTO 36007KT 10SM SCT065 SCT110 09/M04 A2999 RMK AO2 T00931037 401670035
K4V0 100635Z AUTO 35009KT 10SM BKN075 BKN110 10/M04 A2999 RMK AO2 T01001040
K4V0 100615Z AUTO 34006KT 10SM OVC080 10/M04 A2999 RMK AO2 T01031042
K4V0 100555Z AUTO 35008KT 10SM OVC080 11/M05 A3000 RMK AO2 T01091053 10167 20106
K4V0 100535Z AUTO 36008KT 10SM OVC090 11/M05 A2999 RMK AO2 T01081054
K4V0 100515Z AUTO 00000KT 10SM BKN080 OVC100 12/M06 A2999 RMK AO2 T01151062
K4V0 100455Z AUTO 19004KT 10SM OVC090 12/M06 A2999 RMK AO2 T01151058
K4V0 100435Z AUTO 22005KT 10SM OVC090 12/M06 A2999 RMK AO2 T01151060
K4V0 100415Z AUTO 26006KT 10SM SCT075 OVC090 12/M06 A2999 RMK AO2 T01201063
K4V0 100355Z AUTO 29007KT 10SM OVC100 12/M08 A2998 RMK AO2 T01151081
K4V0 100335Z AUTO 00000KT 10SM OVC100 12/M10 A2997 RMK AO2 T01171096
K4V0 100315Z AUTO 00000KT 10SM OVC110 13/M10 A2996 RMK AO2 T01251104
K4V0 100255Z AUTO 00000KT 10SM SCT100 OVC120 12/M09 A2996 RMK AO2 T01221094
K4V0 100235Z AUTO 28004KT 10SM OVC095 13/M11 A2995 RMK AO2 T01301108
K4V0 100215Z AUTO 29005KT 10SM OVC095 13/M11 A2994 RMK AO2 T01341110
K4V0 100155Z AUTO 30007KT 10SM BKN095 BKN110 14/M11 A2993 RMK AO2 T01371110
K4V0 100135Z AUTO 28007KT 10SM BKN110 14/M11 A2993 RMK AO2 T01391106
K4V0 100115Z AUTO 27009KT 10SM BKN110 15/M11 A2993 RMK AO2 T01451110
K4V0 100055Z AUTO 22008KT 10SM CLR 15/M10 A2993 RMK AO2 T01521104
K4V0 100035Z AUTO 24006G09KT 10SM CLR 15/M10 A2993 RMK AO2 T01541098
K4V0 100015Z AUTO 22005KT 10SM CLR 16/M11 A2993 RMK AO2 T01561106
K4V0 092355Z AUTO 21009KT 10SM CLR 16/M10 A2993 RMK AO2 T01581105 10166 20123
K4V0 092335Z AUTO 24006KT 10SM CLR 15/M10 A2993 RMK AO2 T01501101
K4V0 092315Z AUTO 23008KT 10SM CLR 15/M10 A2993 RMK AO2 T01531103
K4V0 092255Z AUTO 21009G13KT 10SM CLR 15/M11 A2994 RMK AO2 T01521114
K4V0 092235Z AUTO 23012G18KT 10SM CLR 16/M11 A2994 RMK AO2 T01571110
K4V0 092215Z AUTO 23010G16KT 10SM CLR 16/M12 A2995 RMK AO2 T01641118
K4V0 092155Z AUTO 21010G20KT 10SM CLR 16/M12 A2995 RMK AO2 T01571125
K4V0 092135Z AUTO 24015G18KT 10SM CLR 16/M12 A2996 RMK AO2 T01601116
K4V0 092115Z AUTO 26011G16KT 10SM CLR 16/M11 A2996 RMK AO2 T01611113
K4V0 092055Z AUTO 24012G18KT 10SM CLR 17/M11 A2997 RMK AO2 T01661112
K4V0 092035Z AUTO 21008KT 10SM CLR 15/M12 A2997 RMK AO2 T01501124
K4V0 092015Z AUTO 24005G09KT 10SM CLR 15/M12 A2997 RMK AO2 T01451119
K4V0 091955Z AUTO 25006G09KT 10SM CLR 15/M11 A2999 RMK AO2 T01511110
K4V0 091935Z AUTO 21006KT 170V230 10SM CLR 15/M11 A2999 RMK AO2 T01501113
K4V0 091915Z AUTO 30003KT 10SM CLR 14/M11 A3000 RMK AO2 T01431111
K4V0 091855Z AUTO 00000KT 10SM CLR 13/M12 A3001 RMK AO2 T01301117
K4V0 091835Z AUTO 00000KT 10SM CLR 14/M11 A3003 RMK AO2 T01371109
K4V0 091815Z AUTO 08003KT 10SM CLR 12/M12 A3003 RMK AO2 T01241117
K4V0 091755Z AUTO 22004KT 10SM CLR 12/M11 A3004 RMK AO2 T01201108 10123 20035
K4V0 091735Z AUTO 28005KT 10SM CLR 12/M10 A3004 RMK AO2 T01191105
K4V0 091715Z AUTO 00000KT 10SM CLR 11/M11 A3004 RMK AO2 T01101114
K4V0 091655Z AUTO 00000KT 10SM CLR 11/M11 A3005 RMK AO2 T01101111
K4V0 091635Z AUTO 03007KT 10SM CLR 11/M11 A3005 RMK AO2 T01071112
K4V0 091615Z AUTO 03007KT 10SM CLR 11/M11 A3006 RMK AO2 T01051108
K4V0 091555Z AUTO 01007KT 10SM CLR 10/M10 A3006 RMK AO2 T01021103
K4V0 091535Z AUTO 02007KT 10SM CLR 10/M09 A3007 RMK AO2 T00961095
K4V0 091515Z AUTO 02006KT 10SM CLR 09/M10 A3007 RMK AO2 T00891097
K4V0 091455Z AUTO 01008KT 10SM CLR 08/M10 A3008 RMK AO2 T00801097
K4V0 091435Z AUTO 03005KT 10SM CLR 07/M10 A3008 RMK AO2 T00741097
K4V0 091415Z AUTO 04007KT 10SM CLR 07/M10 A3008 RMK AO2 T00651099
K4V0 091355Z AUTO 04006KT 10SM CLR 06/M10 A3009 RMK AO2 T00581099
K4V0 091335Z AUTO 05008KT 10SM CLR 05/M10 A3009 RMK AO2 T00521100
K4V0 091315Z AUTO 06007KT 10SM CLR 04/M10 A3008 RMK AO2 T00421099
K4V0 091255Z AUTO 07006KT 10SM CLR 04/M11 A3008 RMK AO2 T00421106
K4V0 091235Z AUTO 05004KT 10SM CLR 04/M10 A3007 RMK AO2 T00361105
K4V0 091215Z AUTO 06005KT 10SM CLR 04/M10 A3007 RMK AO2 T00421105
K4V0 091155Z AUTO 06008KT 10SM CLR 05/M11 A3007 RMK AO2 7//// T00471107 10095 20044
K4V0 091135Z AUTO 07007KT 10SM CLR 05/M11 A3007 RMK AO2 T00471106
K4V0 091115Z AUTO 07003KT 10SM CLR 05/M11 A3007 RMK AO2 T00491113
K4V0 091055Z AUTO 05003KT 10SM CLR 06/M11 A3007 RMK AO2 T00551115
K4V0 091035Z AUTO 04007KT 10SM CLR 06/M11 A3007 RMK AO2 T00581115